sensor_id;sensor_type;location;lat;lon;timestamp;pressure;altitude;pressure_sealevel;temperature;humidity
69911;BME280;63555;49.920;17.868;2023-05-02T00:01:50;98522.06;;;8.72;70.80
69911;BME280;63555;49.920;17.868;2023-05-02T00:06:54;98510.81;;;8.70;70.95
69911;BME280;63555;49.920;17.868;2023-05-02T00:11:54;98511.88;;;8.67;70.55
69911;BME280;63555;49.920;17.868;2023-05-02T00:16:54;98501.44;;;8.66;70.59
69911;BME280;63555;49.920;17.868;2023-05-02T00:21:55;98503.06;;;8.68;70.69
69911;BME280;63555;49.920;17.868;2023-05-02T00:26:55;98504.84;;;8.68;71.35
69911;BME280;63555;49.920;17.868;2023-05-02T00:31:56;98500.50;;;8.67;70.81
69911;BME280;63555;49.920;17.868;2023-05-02T00:36:57;98500.63;;;8.65;71.21
69911;BME280;63555;49.920;17.868;2023-05-02T00:41:58;98496.31;;;8.64;71.50
69911;BME280;63555;49.920;17.868;2023-05-02T00:47:00;98496.41;;;8.62;71.89
69911;BME280;63555;49.920;17.868;2023-05-02T00:52:01;98506.19;;;8.60;71.67
69911;BME280;63555;49.920;17.868;2023-05-02T00:57:01;98502.84;;;8.58;71.85
69911;BME280;63555;49.920;17.868;2023-05-02T01:02:33;98501.16;;;8.57;72.36
69911;BME280;63555;49.920;17.868;2023-05-02T01:08:12;98508.09;;;8.58;71.72
69911;BME280;63555;49.920;17.868;2023-05-02T01:13:26;98515.16;;;8.58;71.79
69911;BME280;63555;49.920;17.868;2023-05-02T01:18:31;98518.09;;;8.53;72.00
69911;BME280;63555;49.920;17.868;2023-05-02T01:23:56;98520.94;;;8.50;72.36
69911;BME280;63555;49.920;17.868;2023-05-02T01:29:05;98527.88;;;8.51;72.25
69911;BME280;63555;49.920;17.868;2023-05-02T01:34:08;98522.84;;;8.48;72.81
69911;BME280;63555;49.920;17.868;2023-05-02T01:39:13;98517.81;;;8.45;72.35
69911;BME280;63555;49.920;17.868;2023-05-02T01:44:15;98520.75;;;8.41;72.86
69911;BME280;63555;49.920;17.868;2023-05-02T01:49:18;98509.72;;;8.36;72.67
69911;BME280;63555;49.920;17.868;2023-05-02T01:54:22;98524.84;;;8.32;73.25
69911;BME280;63555;49.920;17.868;2023-05-02T01:59:24;98520.84;;;8.26;73.66
69911;BME280;63555;49.920;17.868;2023-05-02T02:04:25;98522.03;;;8.22;73.75
69911;BME280;63555;49.920;17.868;2023-05-02T02:09:28;98524.03;;;8.19;73.54
69911;BME280;63555;49.920;17.868;2023-05-02T02:14:35;98525.06;;;8.16;73.81
69911;BME280;63555;49.920;17.868;2023-05-02T02:19:37;98527.19;;;8.11;74.00
69911;BME280;63555;49.920;17.868;2023-05-02T02:24:39;98529.28;;;8.06;74.08
69911;BME280;63555;49.920;17.868;2023-05-02T02:29:40;98529.81;;;7.98;74.10
69911;BME280;63555;49.920;17.868;2023-05-02T02:34:40;98532.97;;;7.91;74.37
69911;BME280;63555;49.920;17.868;2023-05-02T02:39:49;98542.94;;;7.86;73.75
69911;BME280;63555;49.920;17.868;2023-05-02T02:45:01;98537.22;;;7.79;74.47
69911;BME280;63555;49.920;17.868;2023-05-02T02:50:15;98550.88;;;7.72;74.29
69911;BME280;63555;49.920;17.868;2023-05-02T02:55:42;98546.16;;;7.64;74.13
69911;BME280;63555;49.920;17.868;2023-05-02T03:00:45;98540.38;;;7.59;74.72
69911;BME280;63555;49.920;17.868;2023-05-02T03:05:46;98538.88;;;7.55;74.32
69911;BME280;63555;49.920;17.868;2023-05-02T03:10:47;98547.69;;;7.54;74.87
69911;BME280;63555;49.920;17.868;2023-05-02T03:20:50;98545.72;;;7.57;74.91
69911;BME280;63555;49.920;17.868;2023-05-02T03:25:51;98551.09;;;7.68;74.94
69911;BME280;63555;49.920;17.868;2023-05-02T03:30:52;98560.69;;;7.82;74.81
69911;BME280;63555;49.920;17.868;2023-05-02T03:35:52;98552.28;;;7.90;74.25
69911;BME280;63555;49.920;17.868;2023-05-02T03:40:55;98552.28;;;8.03;74.27
69911;BME280;63555;49.920;17.868;2023-05-02T03:45:56;98553.00;;;8.30;74.13
69911;BME280;63555;49.920;17.868;2023-05-02T03:50:57;98568.34;;;8.61;72.94
69911;BME280;63555;49.920;17.868;2023-05-02T03:55:57;98574.63;;;8.84;72.29
69911;BME280;63555;49.920;17.868;2023-05-02T04:00:58;98578.03;;;8.98;72.46
69911;BME280;63555;49.920;17.868;2023-05-02T04:05:58;98585.38;;;9.05;71.96
69911;BME280;63555;49.920;17.868;2023-05-02T04:10:58;98579.56;;;9.13;71.89
69911;BME280;63555;49.920;17.868;2023-05-02T04:15:59;98579.94;;;9.19;71.67
69911;BME280;63555;49.920;17.868;2023-05-02T04:20:59;98593.91;;;9.33;71.76
69911;BME280;63555;49.920;17.868;2023-05-02T04:26:00;98594.97;;;9.54;71.66
69911;BME280;63555;49.920;17.868;2023-05-02T04:31:01;98599.38;;;9.77;71.09
69911;BME280;63555;49.920;17.868;2023-05-02T04:36:03;98604.34;;;10.04;70.61
69911;BME280;63555;49.920;17.868;2023-05-02T04:41:04;98614.00;;;10.39;69.67
69911;BME280;63555;49.920;17.868;2023-05-02T04:46:04;98612.00;;;10.76;68.91
69911;BME280;63555;49.920;17.868;2023-05-02T04:51:04;98607.66;;;11.08;68.29
69911;BME280;63555;49.920;17.868;2023-05-02T04:56:05;98618.88;;;11.44;67.56
69911;BME280;63555;49.920;17.868;2023-05-02T05:01:05;98615.75;;;11.82;66.87
69911;BME280;63555;49.920;17.868;2023-05-02T05:06:06;98612.31;;;12.23;65.85
69911;BME280;63555;49.920;17.868;2023-05-02T05:11:06;98598.31;;;12.63;64.07
69911;BME280;63555;49.920;17.868;2023-05-02T05:16:10;98594.97;;;13.01;62.83
69911;BME280;63555;49.920;17.868;2023-05-02T05:21:11;98591.72;;;13.28;61.65
69911;BME280;63555;49.920;17.868;2023-05-02T05:26:13;98588.81;;;13.50;60.42
69911;BME280;63555;49.920;17.868;2023-05-02T05:31:14;98600.25;;;13.70;59.67
69911;BME280;63555;49.920;17.868;2023-05-02T05:36:16;98607.25;;;13.90;59.40
69911;BME280;63555;49.920;17.868;2023-05-02T05:41:16;98616.16;;;14.18;59.40
69911;BME280;63555;49.920;17.868;2023-05-02T05:46:17;98618.63;;;14.49;58.98
69911;BME280;63555;49.920;17.868;2023-05-02T05:51:17;98626.50;;;14.78;57.91
69911;BME280;63555;49.920;17.868;2023-05-02T05:56:17;98619.94;;;15.09;57.65
69911;BME280;63555;49.920;17.868;2023-05-02T06:01:18;98639.44;;;15.45;57.02
69911;BME280;63555;49.920;17.868;2023-05-02T06:06:18;98642.34;;;15.97;56.43
69911;BME280;63555;49.920;17.868;2023-05-02T06:11:18;98649.84;;;16.63;55.21
69911;BME280;63555;49.920;17.868;2023-05-02T06:16:19;98642.88;;;17.30;54.16
69911;BME280;63555;49.920;17.868;2023-05-02T06:21:19;98654.41;;;17.97;53.49
69911;BME280;63555;49.920;17.868;2023-05-02T06:26:20;98654.75;;;18.59;52.46
69911;BME280;63555;49.920;17.868;2023-05-02T06:31:20;98657.38;;;18.92;51.41
69911;BME280;63555;49.920;17.868;2023-05-02T06:36:21;98668.28;;;19.29;51.10
69911;BME280;63555;49.920;17.868;2023-05-02T06:41:21;98666.41;;;19.77;49.92
69911;BME280;63555;49.920;17.868;2023-05-02T06:46:22;98671.78;;;20.23;48.83
69911;BME280;63555;49.920;17.868;2023-05-02T06:51:22;98688.22;;;20.80;47.96
69911;BME280;63555;49.920;17.868;2023-05-02T06:56:24;98686.25;;;21.26;46.96
69911;BME280;63555;49.920;17.868;2023-05-02T07:01:25;98701.84;;;21.82;45.85
69911;BME280;63555;49.920;17.868;2023-05-02T07:06:25;98703.81;;;22.31;44.64
69911;BME280;63555;49.920;17.868;2023-05-02T07:11:26;98708.06;;;22.61;44.04
69911;BME280;63555;49.920;17.868;2023-05-02T07:16:27;98715.53;;;22.66;43.33
69911;BME280;63555;49.920;17.868;2023-05-02T07:21:27;98717.97;;;22.82;42.88
69911;BME280;63555;49.920;17.868;2023-05-02T07:26:28;98725.75;;;22.77;42.60
69911;BME280;63555;49.920;17.868;2023-05-02T07:31:29;98723.34;;;22.82;42.18
69911;BME280;63555;49.920;17.868;2023-05-02T07:36:29;98732.25;;;23.10;41.64
69911;BME280;63555;49.920;17.868;2023-05-02T07:41:30;98734.34;;;23.84;40.63
69911;BME280;63555;49.920;17.868;2023-05-02T07:46:30;98729.59;;;23.86;39.85
69911;BME280;63555;49.920;17.868;2023-05-02T07:51:30;98745.66;;;23.04;41.07
69911;BME280;63555;49.920;17.868;2023-05-02T07:56:31;98745.84;;;22.38;41.55
69911;BME280;63555;49.920;17.868;2023-05-02T08:01:32;98749.03;;;21.91;42.54
69911;BME280;63555;49.920;17.868;2023-05-02T08:06:32;98750.72;;;21.62;42.54
69911;BME280;63555;49.920;17.868;2023-05-02T08:11:33;98743.97;;;21.52;42.77
69911;BME280;63555;49.920;17.868;2023-05-02T08:16:33;98763.97;;;21.49;43.18
69911;BME280;63555;49.920;17.868;2023-05-02T08:21:34;98754.44;;;21.47;43.38
69911;BME280;63555;49.920;17.868;2023-05-02T08:26:34;98765.34;;;21.60;42.93
69911;BME280;63555;49.920;17.868;2023-05-02T08:31:34;98760.00;;;21.75;42.45
69911;BME280;63555;49.920;17.868;2023-05-02T08:36:35;98764.84;;;22.01;42.03
69911;BME280;63555;49.920;17.868;2023-05-02T08:41:36;98759.88;;;22.34;41.07
69911;BME280;63555;49.920;17.868;2023-05-02T08:46:40;98768.69;;;22.28;40.57
69911;BME280;63555;49.920;17.868;2023-05-02T08:51:41;98767.41;;;22.23;40.78
69911;BME280;63555;49.920;17.868;2023-05-02T08:56:43;98778.91;;;22.75;40.86
69911;BME280;63555;49.920;17.868;2023-05-02T09:01:48;98772.06;;;23.91;39.88
69911;BME280;63555;49.920;17.868;2023-05-02T09:06:48;98770.00;;;24.34;39.47
69911;BME280;63555;49.920;17.868;2023-05-02T09:11:50;98782.09;;;24.84;38.48
69911;BME280;63555;49.920;17.868;2023-05-02T09:16:57;98785.25;;;25.01;38.69
69911;BME280;63555;49.920;17.868;2023-05-02T09:22:01;98795.59;;;24.91;38.12
69911;BME280;63555;49.920;17.868;2023-05-02T09:27:03;98792.44;;;24.61;39.04
69911;BME280;63555;49.920;17.868;2023-05-02T09:32:04;98793.91;;;24.70;38.57
69911;BME280;63555;49.920;17.868;2023-05-02T09:37:05;98798.28;;;24.77;37.50
69911;BME280;63555;49.920;17.868;2023-05-02T09:42:05;98816.53;;;24.75;37.44
69911;BME280;63555;49.920;17.868;2023-05-02T09:47:06;98819.00;;;24.57;38.14
69911;BME280;63555;49.920;17.868;2023-05-02T09:52:12;98818.75;;;24.39;37.85
69911;BME280;63555;49.920;17.868;2023-05-02T09:57:13;98820.78;;;24.30;38.98
69911;BME280;63555;49.920;17.868;2023-05-02T10:02:13;98831.41;;;24.45;39.24
69911;BME280;63555;49.920;17.868;2023-05-02T10:07:15;98832.88;;;24.54;38.98
69911;BME280;63555;49.920;17.868;2023-05-02T10:12:17;98829.69;;;24.31;39.70
69911;BME280;63555;49.920;17.868;2023-05-02T10:17:29;98834.16;;;24.17;40.17
69911;BME280;63555;49.920;17.868;2023-05-02T10:22:32;98827.56;;;24.26;40.25
69911;BME280;63555;49.920;17.868;2023-05-02T10:27:33;98834.34;;;24.63;40.29
69911;BME280;63555;49.920;17.868;2023-05-02T10:32:35;98837.44;;;24.47;40.53
69911;BME280;63555;49.920;17.868;2023-05-02T10:37:37;98845.19;;;23.53;42.72
69911;BME280;63555;49.920;17.868;2023-05-02T10:42:48;98844.59;;;23.08;44.07
69911;BME280;63555;49.920;17.868;2023-05-02T10:47:50;98853.34;;;23.17;44.38
69911;BME280;63555;49.920;17.868;2023-05-02T10:52:51;98857.84;;;23.10;44.73
69911;BME280;63555;49.920;17.868;2023-05-02T11:02:58;98844.94;;;23.76;44.47
69911;BME280;63555;49.920;17.868;2023-05-02T11:13:14;98854.50;;;25.99;41.16
69911;BME280;63555;49.920;17.868;2023-05-02T11:18:14;98856.19;;;26.58;39.70
69911;BME280;63555;49.920;17.868;2023-05-02T11:33:33;98866.38;;;26.05;39.79
69911;BME280;63555;49.920;17.868;2023-05-02T11:38:36;98870.59;;;25.42;39.96
69911;BME280;63555;49.920;17.868;2023-05-02T11:43:36;98870.81;;;25.33;40.67
69911;BME280;63555;49.920;17.868;2023-05-02T11:48:37;98877.63;;;25.62;40.33
69911;BME280;63555;49.920;17.868;2023-05-02T11:53:39;98876.63;;;25.44;40.34
69911;BME280;63555;49.920;17.868;2023-05-02T11:58:40;98890.06;;;24.97;40.86
69911;BME280;63555;49.920;17.868;2023-05-02T12:03:40;98894.59;;;24.29;41.74
69911;BME280;63555;49.920;17.868;2023-05-02T12:08:42;98905.88;;;23.34;43.17
69911;BME280;63555;49.920;17.868;2023-05-02T12:13:47;98919.03;;;22.50;44.09
69911;BME280;63555;49.920;17.868;2023-05-02T12:18:48;98916.88;;;21.72;45.58
69911;BME280;63555;49.920;17.868;2023-05-02T12:23:48;98931.09;;;20.89;46.94
69911;BME280;63555;49.920;17.868;2023-05-02T12:28:50;98930.47;;;20.48;47.68
69911;BME280;63555;49.920;17.868;2023-05-02T12:33:51;98930.56;;;20.16;48.14
69911;BME280;63555;49.920;17.868;2023-05-02T12:38:57;98936.66;;;19.85;49.07
69911;BME280;63555;49.920;17.868;2023-05-02T12:44:01;98936.88;;;19.67;49.79
69911;BME280;63555;49.920;17.868;2023-05-02T12:49:03;98942.72;;;19.71;49.84
69911;BME280;63555;49.920;17.868;2023-05-02T12:54:04;98942.00;;;19.85;50.09
69911;BME280;63555;49.920;17.868;2023-05-02T12:59:06;98947.56;;;19.67;50.62
69911;BME280;63555;49.920;17.868;2023-05-02T13:04:07;98954.75;;;19.18;51.43
69911;BME280;63555;49.920;17.868;2023-05-02T13:09:07;98972.38;;;18.87;51.97
69911;BME280;63555;49.920;17.868;2023-05-02T13:14:07;98973.97;;;18.63;51.82
69911;BME280;63555;49.920;17.868;2023-05-02T13:19:10;98978.25;;;18.56;51.88
69911;BME280;63555;49.920;17.868;2023-05-02T13:24:10;98977.94;;;18.59;51.89
69911;BME280;63555;49.920;17.868;2023-05-02T13:29:12;98980.41;;;18.53;52.35
69911;BME280;63555;49.920;17.868;2023-05-02T13:34:12;98986.13;;;18.24;52.56
69911;BME280;63555;49.920;17.868;2023-05-02T13:39:12;98980.25;;;17.94;52.72
69911;BME280;63555;49.920;17.868;2023-05-02T13:44:13;98984.91;;;17.66;53.36
69911;BME280;63555;49.920;17.868;2023-05-02T13:49:13;98979.09;;;17.53;53.80
69911;BME280;63555;49.920;17.868;2023-05-02T13:54:15;98981.94;;;17.51;53.87
69911;BME280;63555;49.920;17.868;2023-05-02T13:59:15;98990.91;;;17.33;53.72
69911;BME280;63555;49.920;17.868;2023-05-02T14:04:16;98997.84;;;17.26;53.59
69911;BME280;63555;49.920;17.868;2023-05-02T14:09:16;99000.19;;;17.11;53.67
69911;BME280;63555;49.920;17.868;2023-05-02T14:14:16;99006.28;;;17.03;53.58
69911;BME280;63555;49.920;17.868;2023-05-02T14:19:17;99009.41;;;16.99;53.56
69911;BME280;63555;49.920;17.868;2023-05-02T14:24:17;99021.66;;;16.92;53.40
69911;BME280;63555;49.920;17.868;2023-05-02T14:29:18;99025.00;;;16.66;53.95
69911;BME280;63555;49.920;17.868;2023-05-02T14:34:19;99037.50;;;16.46;54.04
69911;BME280;63555;49.920;17.868;2023-05-02T14:39:21;99043.06;;;16.25;54.36
69911;BME280;63555;49.920;17.868;2023-05-02T14:44:21;99042.69;;;16.11;54.69
69911;BME280;63555;49.920;17.868;2023-05-02T14:49:21;99050.28;;;15.96;54.94
69911;BME280;63555;49.920;17.868;2023-05-02T14:54:26;99057.28;;;15.87;55.17
69911;BME280;63555;49.920;17.868;2023-05-02T14:59:28;99065.97;;;15.70;55.87
69911;BME280;63555;49.920;17.868;2023-05-02T15:04:29;99067.75;;;15.41;56.66
69911;BME280;63555;49.920;17.868;2023-05-02T15:09:30;99081.31;;;14.78;57.58
69911;BME280;63555;49.920;17.868;2023-05-02T15:14:30;99084.19;;;14.14;58.97
69911;BME280;63555;49.920;17.868;2023-05-02T15:19:30;99090.81;;;13.67;59.69
69911;BME280;63555;49.920;17.868;2023-05-02T15:24:31;99089.00;;;13.35;60.59
69911;BME280;63555;49.920;17.868;2023-05-02T15:29:31;99080.25;;;13.13;61.12
69911;BME280;63555;49.920;17.868;2023-05-02T15:34:31;99083.28;;;13.19;62.21
69911;BME280;63555;49.920;17.868;2023-05-02T15:39:32;99069.63;;;13.35;62.49
69911;BME280;63555;49.920;17.868;2023-05-02T15:44:36;99061.38;;;13.49;63.11
69911;BME280;63555;49.920;17.868;2023-05-02T15:49:36;99063.00;;;13.61;63.44
69911;BME280;63555;49.920;17.868;2023-05-02T15:54:37;99064.75;;;13.72;63.90
69911;BME280;63555;49.920;17.868;2023-05-02T15:59:41;99069.78;;;13.75;64.14
69911;BME280;63555;49.920;17.868;2023-05-02T16:04:41;99061.72;;;13.77;64.73
69911;BME280;63555;49.920;17.868;2023-05-02T16:09:42;99061.97;;;13.74;65.30
69911;BME280;63555;49.920;17.868;2023-05-02T16:14:42;99051.31;;;13.64;65.73
69911;BME280;63555;49.920;17.868;2023-05-02T16:19:42;99046.97;;;13.63;66.37
69911;BME280;63555;49.920;17.868;2023-05-02T16:24:43;99058.03;;;13.68;66.65
69911;BME280;63555;49.920;17.868;2023-05-02T16:29:43;99049.50;;;13.64;66.56
69911;BME280;63555;49.920;17.868;2023-05-02T16:34:43;99052.72;;;13.68;66.62
69911;BME280;63555;49.920;17.868;2023-05-02T16:39:44;99058.16;;;13.66;66.57
69911;BME280;63555;49.920;17.868;2023-05-02T16:44:45;99058.78;;;13.59;66.72
69911;BME280;63555;49.920;17.868;2023-05-02T16:49:45;99072.44;;;13.54;67.27
69911;BME280;63555;49.920;17.868;2023-05-02T16:54:46;99077.13;;;13.51;67.33
69911;BME280;63555;49.920;17.868;2023-05-02T16:59:48;99067.06;;;13.45;67.24
69911;BME280;63555;49.920;17.868;2023-05-02T17:04:49;99078.88;;;13.41;67.21
69911;BME280;63555;49.920;17.868;2023-05-02T17:09:49;99090.94;;;13.33;67.53
69911;BME280;63555;49.920;17.868;2023-05-02T17:14:49;99101.56;;;13.22;67.69
69911;BME280;63555;49.920;17.868;2023-05-02T17:19:50;99102.88;;;13.05;67.94
69911;BME280;63555;49.920;17.868;2023-05-02T17:24:51;99108.53;;;12.90;68.87
69911;BME280;63555;49.920;17.868;2023-05-02T17:29:53;99119.84;;;12.69;68.92
69911;BME280;63555;49.920;17.868;2023-05-02T17:34:53;99126.72;;;12.50;70.16
69911;BME280;63555;49.920;17.868;2023-05-02T17:39:54;99124.28;;;12.35;70.66
69911;BME280;63555;49.920;17.868;2023-05-02T17:44:54;99129.44;;;12.26;71.34
69911;BME280;63555;49.920;17.868;2023-05-02T17:49:55;99128.22;;;12.19;72.01
69911;BME280;63555;49.920;17.868;2023-05-02T17:54:56;99133.94;;;12.12;72.58
69911;BME280;63555;49.920;17.868;2023-05-02T17:59:57;99132.72;;;12.05;73.11
69911;BME280;63555;49.920;17.868;2023-05-02T18:04:58;99147.38;;;11.98;73.26
69911;BME280;63555;49.920;17.868;2023-05-02T18:10:00;99158.28;;;11.94;73.54
69911;BME280;63555;49.920;17.868;2023-05-02T18:15:02;99164.88;;;11.88;74.03
69911;BME280;63555;49.920;17.868;2023-05-02T18:20:05;99170.72;;;11.80;74.18
69911;BME280;63555;49.920;17.868;2023-05-02T18:25:06;99172.72;;;11.77;74.45
69911;BME280;63555;49.920;17.868;2023-05-02T18:30:07;99181.00;;;11.72;74.21
69911;BME280;63555;49.920;17.868;2023-05-02T18:35:08;99181.56;;;11.65;74.71
69911;BME280;63555;49.920;17.868;2023-05-02T18:40:10;99186.09;;;11.63;74.95
69911;BME280;63555;49.920;17.868;2023-05-02T18:45:11;99198.19;;;11.54;74.57
69911;BME280;63555;49.920;17.868;2023-05-02T18:50:12;99202.97;;;11.49;75.12
69911;BME280;63555;49.920;17.868;2023-05-02T18:55:12;99191.25;;;11.40;75.25
69911;BME280;63555;49.920;17.868;2023-05-02T19:00:12;99199.13;;;11.29;75.99
69911;BME280;63555;49.920;17.868;2023-05-02T19:05:13;99201.63;;;11.18;76.18
69911;BME280;63555;49.920;17.868;2023-05-02T19:10:14;99201.34;;;11.10;76.59
69911;BME280;63555;49.920;17.868;2023-05-02T19:15:14;99214.13;;;11.03;77.13
69911;BME280;63555;49.920;17.868;2023-05-02T19:20:15;99222.69;;;10.94;77.32
69911;BME280;63555;49.920;17.868;2023-05-02T19:25:15;99226.06;;;10.83;77.83
69911;BME280;63555;49.920;17.868;2023-05-02T19:30:16;99222.06;;;10.78;78.76
69911;BME280;63555;49.920;17.868;2023-05-02T19:35:17;99224.81;;;10.76;78.99
69911;BME280;63555;49.920;17.868;2023-05-02T19:40:17;99220.59;;;10.74;79.42
69911;BME280;63555;49.920;17.868;2023-05-02T19:45:17;99225.75;;;10.75;79.78
69911;BME280;63555;49.920;17.868;2023-05-02T19:50:18;99224.06;;;10.74;80.38
69911;BME280;63555;49.920;17.868;2023-05-02T19:55:18;99231.13;;;10.74;80.64
69911;BME280;63555;49.920;17.868;2023-05-02T20:00:19;99238.22;;;10.73;80.86
69911;BME280;63555;49.920;17.868;2023-05-02T20:05:20;99247.91;;;10.73;81.24
69911;BME280;63555;49.920;17.868;2023-05-02T20:10:20;99242.75;;;10.71;81.45
69911;BME280;63555;49.920;17.868;2023-05-02T20:15:21;99242.75;;;10.71;81.82
69911;BME280;63555;49.920;17.868;2023-05-02T20:20:22;99248.88;;;10.72;81.93
69911;BME280;63555;49.920;17.868;2023-05-02T20:25:22;99243.69;;;10.70;81.60
69911;BME280;63555;49.920;17.868;2023-05-02T20:30:23;99242.97;;;10.68;81.96
69911;BME280;63555;49.920;17.868;2023-05-02T20:35:23;99249.28;;;10.66;82.03
69911;BME280;63555;49.920;17.868;2023-05-02T20:40:25;99254.78;;;10.63;81.73
69911;BME280;63555;49.920;17.868;2023-05-02T20:45:26;99259.31;;;10.61;81.89
69911;BME280;63555;49.920;17.868;2023-05-02T20:50:27;99260.34;;;10.58;81.80
69911;BME280;63555;49.920;17.868;2023-05-02T20:55:27;99268.47;;;10.55;82.15
69911;BME280;63555;49.920;17.868;2023-05-02T21:00:28;99268.69;;;10.52;82.17
69911;BME280;63555;49.920;17.868;2023-05-02T21:05:28;99275.75;;;10.51;82.06
69911;BME280;63555;49.920;17.868;2023-05-02T21:10:29;99274.16;;;10.49;82.24
69911;BME280;63555;49.920;17.868;2023-05-02T21:15:33;99285.56;;;10.49;82.27
69911;BME280;63555;49.920;17.868;2023-05-02T21:20:34;99289.13;;;10.48;82.17
69911;BME280;63555;49.920;17.868;2023-05-02T21:25:37;99292.09;;;10.44;82.05
69911;BME280;63555;49.920;17.868;2023-05-02T21:30:37;99290.75;;;10.37;81.73
69911;BME280;63555;49.920;17.868;2023-05-02T21:35:38;99292.22;;;10.28;82.11
69911;BME280;63555;49.920;17.868;2023-05-02T21:40:38;99306.75;;;10.21;82.06
69911;BME280;63555;49.920;17.868;2023-05-02T21:45:43;99306.91;;;10.18;81.94
69911;BME280;63555;49.920;17.868;2023-05-02T21:50:44;99305.91;;;10.20;82.16
69911;BME280;63555;49.920;17.868;2023-05-02T21:55:44;99312.66;;;10.25;82.58
69911;BME280;63555;49.920;17.868;2023-05-02T22:00:45;99310.03;;;10.25;82.48
69911;BME280;63555;49.920;17.868;2023-05-02T22:05:47;99308.25;;;10.25;82.42
69911;BME280;63555;49.920;17.868;2023-05-02T22:10:47;99321.31;;;10.27;82.57
69911;BME280;63555;49.920;17.868;2023-05-02T22:15:47;99319.31;;;10.30;82.63
69911;BME280;63555;49.920;17.868;2023-05-02T22:20:49;99318.38;;;10.31;82.68
69911;BME280;63555;49.920;17.868;2023-05-02T22:25:50;99319.13;;;10.33;82.89
69911;BME280;63555;49.920;17.868;2023-05-02T22:30:50;99316.38;;;10.35;82.81
69911;BME280;63555;49.920;17.868;2023-05-02T22:35:50;99312.69;;;10.37;82.85
69911;BME280;63555;49.920;17.868;2023-05-02T22:40:51;99316.28;;;10.36;82.90
69911;BME280;63555;49.920;17.868;2023-05-02T22:45:51;99315.34;;;10.37;83.03
69911;BME280;63555;49.920;17.868;2023-05-02T22:50:52;99310.91;;;10.38;83.19
69911;BME280;63555;49.920;17.868;2023-05-02T22:55:52;99319.41;;;10.43;83.13
69911;BME280;63555;49.920;17.868;2023-05-02T23:00:52;99323.53;;;10.47;83.20
69911;BME280;63555;49.920;17.868;2023-05-02T23:05:53;99325.22;;;10.48;83.15
69911;BME280;63555;49.920;17.868;2023-05-02T23:10:53;99327.75;;;10.49;83.36
69911;BME280;63555;49.920;17.868;2023-05-02T23:15:54;99324.16;;;10.50;83.25
69911;BME280;63555;49.920;17.868;2023-05-02T23:20:54;99317.19;;;10.49;83.14
69911;BME280;63555;49.920;17.868;2023-05-02T23:25:54;99316.34;;;10.49;83.16
69911;BME280;63555;49.920;17.868;2023-05-02T23:30:55;99320.78;;;10.48;83.12
69911;BME280;63555;49.920;17.868;2023-05-02T23:35:56;99309.59;;;10.45;83.06
69911;BME280;63555;49.920;17.868;2023-05-02T23:40:56;99317.59;;;10.43;83.06
69911;BME280;63555;49.920;17.868;2023-05-02T23:45:57;99306.31;;;10.41;83.30
69911;BME280;63555;49.920;17.868;2023-05-02T23:50:57;99312.44;;;10.42;83.23
69911;BME280;63555;49.920;17.868;2023-05-02T23:55:58;99302.91;;;10.39;83.37
